Boyds, Washington
Current Conditions -  °F | °C
As of 5:00 PM on Sunday 21 Dec 2014 (Local Time) from CYCG Reporting Station
Light Fog Light Fog  
Wind Chill: 36°   Ceiling: 24000
Heat Index: 36°   Visibility: 15mi
Dew Point: 36°   Wind: 3mph
Humidity: 100%   Direction: NA
Pressure: 29.84"   Gusts: NA
Location:  48.82°N, 118.18°W
Report Text: CYCG 220100Z VRB03KT 15SM PRFG FEW001 FEW060 SCT120 BKN240 02/02 A2984 RMK ST1SC1AC2CI2 LAST OBS/NEXT 221400UTC SLP122
Loading
Personal Weather Stations






























Interactive Weather Map New forecast layout! Learn more

10-Day Weather Forecast

Advertisements
Track Severe Weather on mobile